createdAt,value
2023-04-22T00:06:56.130Z,99997.97
2023-04-22T00:14:14.620Z,99998.94
2023-04-22T00:21:34.599Z,100000.38
2023-04-22T00:28:52.849Z,99997.09
2023-04-22T00:36:11.281Z,99983.88
2023-04-22T00:43:31.137Z,99980.88
2023-04-22T00:50:49.339Z,99993.53
2023-04-22T00:58:08.613Z,99991.53
2023-04-22T01:05:28.745Z,99994.13
2023-04-22T01:12:47.239Z,99997.06
2023-04-22T01:20:10.793Z,100003.19
2023-04-22T01:27:31.256Z,100025.72
2023-04-22T01:34:50.174Z,100007.66
2023-04-22T01:42:08.601Z,100004.06
2023-04-22T01:49:28.440Z,100013.88
2023-04-22T01:56:51.899Z,100010.50
2023-04-22T02:04:10.337Z,99990.22
2023-04-22T02:11:30.052Z,99990.25
2023-04-22T02:18:48.531Z,99981.44
2023-04-22T02:26:07.089Z,99983.41
2023-04-22T02:33:28.290Z,99984.78
2023-04-22T02:40:46.474Z,99971.94
2023-04-22T02:48:04.903Z,99977.66
2023-04-22T02:55:25.941Z,99972.66
2023-04-22T03:02:44.792Z,99970.56
2023-04-22T03:10:08.286Z,99967.09
2023-04-22T03:17:28.164Z,99967.19
2023-04-22T03:24:47.498Z,99968.13
2023-04-22T03:32:06.524Z,99959.97
2023-04-22T03:39:28.362Z,99957.78
2023-04-22T03:46:47.002Z,99944.72
2023-04-22T03:54:11.586Z,99956.69
2023-04-22T04:01:38.197Z,99956.41
2023-04-22T04:08:59.050Z,99957.28
2023-04-22T04:16:17.866Z,99947.13
2023-04-22T04:23:40.978Z,99950.94
2023-04-22T04:31:00.052Z,99954.88
2023-04-22T04:38:18.810Z,99955.72
2023-04-22T04:45:39.363Z,99956.06
2023-04-22T04:52:58.910Z,99961.16
2023-04-22T05:00:24.382Z,99960.84
2023-04-22T05:07:44.528Z,99962.69
2023-04-22T05:15:06.908Z,99948.22
2023-04-22T05:22:25.894Z,99955.94
2023-04-22T05:29:46.399Z,99958.56
2023-04-22T05:37:06.630Z,99964.44
2023-04-22T05:44:27.691Z,99953.63
2023-04-22T05:51:47.569Z,99967.50
2023-04-22T05:59:09.021Z,99962.38
2023-04-22T06:06:27.741Z,99953.75
2023-04-22T06:13:47.780Z,99961.91
2023-04-22T06:21:07.110Z,99963.91
2023-04-22T06:28:27.503Z,99962.25
2023-04-22T06:35:50.618Z,99960.91
2023-04-22T06:43:08.982Z,99959.16
2023-04-22T06:50:30.762Z,99962.06
2023-04-22T06:57:51.568Z,99955.66
2023-04-22T07:05:10.150Z,99962.06
2023-04-22T07:12:28.821Z,99951.31
2023-04-22T07:19:48.381Z,99963.16
2023-04-22T07:27:06.480Z,99962.84
2023-04-22T07:34:24.747Z,99967.00
2023-04-22T07:41:44.205Z,99961.66
2023-04-22T07:49:02.309Z,99966.50
2023-04-22T07:56:20.528Z,99966.25
2023-04-22T08:03:40.784Z,99960.69
2023-04-22T08:10:59.106Z,99963.44
2023-04-22T08:18:17.254Z,99950.78
2023-04-22T08:25:37.360Z,99958.41
2023-04-22T08:32:55.692Z,99962.19
2023-04-22T08:40:13.892Z,99967.41
2023-04-22T08:47:34.286Z,99950.03
2023-04-22T08:54:53.005Z,99940.41
2023-04-22T09:02:15.795Z,99946.53
2023-04-22T09:09:35.112Z,99953.97
2023-04-22T09:16:53.365Z,99948.53
2023-04-22T09:24:13.165Z,99942.19
2023-04-22T09:31:34.222Z,99934.53
2023-04-22T09:38:56.568Z,99937.81
2023-04-22T09:46:14.730Z,99932.25
2023-04-22T09:53:38.563Z,99917.78
2023-04-22T10:00:59.262Z,99926.16
2023-04-22T10:08:18.906Z,99924.09
2023-04-22T10:15:41.107Z,99917.38
2023-04-22T10:22:59.534Z,99919.50
2023-04-22T10:30:28.566Z,99910.34
2023-04-22T10:37:49.186Z,99896.69
2023-04-22T10:45:08.376Z,99887.41
2023-04-22T10:52:30.501Z,99892.13
2023-04-22T10:59:54.407Z,99871.78
2023-04-22T11:07:17.165Z,99866.66
2023-04-22T11:14:35.456Z,99859.19
2023-04-22T11:21:55.562Z,99850.13
2023-04-22T11:29:14.001Z,99850.97
2023-04-22T11:36:32.353Z,99843.28
2023-04-22T11:43:52.187Z,99843.09
2023-04-22T11:51:12.061Z,99833.44
2023-04-22T11:58:30.382Z,99826.94
2023-04-22T12:05:55.033Z,99820.44
2023-04-22T12:13:19.933Z,99815.13
2023-04-22T12:20:40.189Z,99814.34
2023-04-22T12:27:59.941Z,99806.53
2023-04-22T12:35:21.054Z,99797.81
2023-04-22T12:42:40.160Z,99794.38
2023-04-22T12:50:01.500Z,99785.78
2023-04-22T12:57:19.864Z,99768.88
2023-04-22T13:04:38.350Z,99761.91
2023-04-22T13:11:58.483Z,99760.97
2023-04-22T13:19:16.851Z,99747.97
2023-04-22T13:26:35.371Z,99746.91
2023-04-22T13:33:55.498Z,99716.44
2023-04-22T13:41:13.771Z,99725.75
2023-04-22T13:48:32.511Z,99730.97
2023-04-22T13:55:52.224Z,99721.91
2023-04-22T14:03:10.664Z,99718.66
2023-04-22T14:10:29.011Z,99711.34
2023-04-22T14:17:49.874Z,99709.47
2023-04-22T14:25:09.110Z,99700.28
2023-04-22T14:32:28.017Z,99700.19
2023-04-22T14:39:47.954Z,99695.47
2023-04-22T14:47:06.692Z,99697.50
2023-04-22T14:54:24.982Z,99685.78
2023-04-22T15:01:44.763Z,99691.94
2023-04-22T15:09:03.090Z,99679.69
2023-04-22T15:16:21.540Z,99670.81
2023-04-22T15:23:41.300Z,99664.25
2023-04-22T15:30:59.655Z,99663.09
2023-04-22T15:38:18.309Z,99664.53
2023-04-22T15:45:38.210Z,99658.50
2023-04-22T15:52:56.656Z,99653.88
2023-04-22T16:00:16.981Z,99649.94
2023-04-22T16:07:36.658Z,99646.22
2023-04-22T16:14:54.969Z,99640.91
2023-04-22T16:22:13.244Z,99641.22
2023-04-22T16:29:32.956Z,99630.72
2023-04-22T16:36:51.317Z,99624.41
2023-04-22T16:44:09.615Z,99616.84
2023-04-22T16:51:29.237Z,99614.03
2023-04-22T16:58:47.631Z,99611.50
2023-04-22T17:06:06.531Z,99605.72
2023-04-22T17:13:26.356Z,99597.88
2023-04-22T17:20:44.805Z,99595.91
2023-04-22T17:28:03.155Z,99594.91
2023-04-22T17:35:22.991Z,99593.31
2023-04-22T17:50:02.822Z,99590.72
2023-04-22T17:57:22.628Z,99598.69
2023-04-22T18:04:41.463Z,99604.06
2023-04-22T18:11:59.862Z,99601.97
2023-04-22T18:19:20.035Z,99602.44
2023-04-22T18:26:38.607Z,99608.25
2023-04-22T18:33:57.461Z,99615.41
2023-04-22T18:41:17.913Z,99616.22
2023-04-22T18:48:37.245Z,99616.84
2023-04-22T18:55:55.964Z,99612.94
2023-04-22T19:03:16.508Z,99617.78
2023-04-22T19:10:35.544Z,99621.22
2023-04-22T19:17:54.262Z,99615.41
2023-04-22T19:25:14.094Z,99610.66
2023-04-22T19:32:41.708Z,99615.13
2023-04-22T19:40:00.156Z,99614.00
2023-04-22T19:47:20.722Z,99605.94
2023-04-22T19:54:40.242Z,99603.78
2023-04-22T20:01:59.471Z,99589.72
2023-04-22T20:09:19.933Z,99596.47
2023-04-22T20:16:39.560Z,99590.34
2023-04-22T20:23:58.478Z,99593.94
2023-04-22T20:31:20.828Z,99584.59
2023-04-22T20:38:39.436Z,99594.59
2023-04-22T20:45:57.872Z,99593.72
2023-04-22T20:53:17.897Z,99590.69
2023-04-22T21:00:36.498Z,99592.53
2023-04-22T21:07:55.859Z,99583.88
2023-04-22T21:15:17.017Z,99590.00
2023-04-22T21:22:35.587Z,99589.91
2023-04-22T21:29:54.683Z,99588.00
2023-04-22T21:37:15.143Z,99580.16
2023-04-22T21:44:33.478Z,99596.88
2023-04-22T21:51:52.244Z,99590.56
2023-04-22T21:59:12.093Z,99590.19
2023-04-22T22:06:33.548Z,99590.22
2023-04-22T22:13:52.527Z,99583.72
2023-04-22T22:21:12.395Z,99584.81
2023-04-22T22:28:30.640Z,99597.03
2023-04-22T22:35:49.153Z,99584.84
2023-04-22T22:43:08.780Z,99591.31
2023-04-22T22:50:27.448Z,99589.06
2023-04-22T22:57:45.655Z,99581.50
2023-04-22T23:05:05.685Z,99581.56
2023-04-22T23:12:24.075Z,99582.31
2023-04-22T23:19:43.006Z,99579.16
2023-04-22T23:27:03.388Z,99577.09
2023-04-22T23:34:23.875Z,99565.94
2023-04-22T23:41:43.509Z,99571.69
2023-04-22T23:49:03.432Z,99557.41
2023-04-22T23:56:23.177Z,99562.03
